Daley Dijks

Recruteur en chef - Cambuur
3 Déc 2028
Dimanche
Processus

Personnalité

Adaptabilité (17) Ambition (8) Controverse (8) Loyauté (13) Pression (5) Professionnalisme (2) Sportivité (12) Tempérament (14)

Profil

Style d'entraînement Démocratique
Diplôme Continental B
Détermination 4
Gestion des joueurs 8
Motivation 9
Discipline 5
Satisfaction professionnelle
100%
Fatigue
0%
Rôle Recruteur en chef
Salaire 32.9K p/s
Contrat 14.03.2030

Performance

Comportement Bon
Efficacité de l'entraînement
21%
Développement des joueurs
35%
Prévention des blessures
55%
Mise en place tactique
20%

Événements récents

A participé à une réunion de recrutement maintenant
A recommandé une cible de transfert maintenant
A recommandé une cible de transfert maintenant
A participé à une réunion de recrutement 7j
A recommandé une cible de transfert 7j
A recommandé une cible de transfert 7j
A recommandé une cible de transfert 7j
A recommandé une cible de transfert 7j

Suivi en cours

64
Joueur Club Statut Capacité Confiance Observé Dernière observation Dernier vote
Isaac Partey Sol de America Actif 108 / 109 66% 1 01.01.2028 -
Samuel Asamoah Racing Actif 104 / 110 66% 1 01.06.2027 Approuver
Liel Abada Inter Miami CF Actif 131 / 132 62% 1 01.06.2027 -
Max Svensson Corinthians Actif 106 / 108 66% 1 01.01.2027 Approuver
Pablo Fernández Leiria Actif 110 / 110 67% 1 01.01.2027 Approuver
Caio Vidal Deportivo Pereira Actif 128 / 129 63% 1 01.01.2027 Approuver
Enrique Lofolomo Zulte Waregem Actif 111 / 102 40% 1 28.12.2026 -
Tyrhys Dolan Espanyol Actif 124 / 147 40% 4 27.12.2026 -
Maksim Kireev KV Mechelen Actif 108 / 135 40% 2 27.12.2026 -
Mardochée Nzita Charleroi Actif 124 / 106 40% 2 26.12.2026 -
Tibe De Vlieger KAA Gent Actif 108 / 117 40% 1 26.12.2026 -
Ilias Sebaoui Sint-Truiden Actif 117 / 117 40% 3 23.12.2026 -
Taiga Hata Sint-Truiden Actif 125 / 113 40% 2 23.12.2026 -
Bobby Clark Derby County Actif 108 / 124 40% 1 19.12.2026 -
Juan Pablo Gallego Fehervar Actif 112 / 123 40% 1 13.12.2026 -
Tyrese Campbell Sheffield United Actif 143 / 128 40% 1 12.12.2026 -
Tristan Degreef Anderlecht Actif 126 / 126 40% 6 11.12.2026 -
William Balikwisha OH Leuven Actif 102 / 127 40% 2 11.12.2026 -
Marley Aké Zulte Waregem Actif 120 / 129 40% 2 10.12.2026 -
Fredrik Hammar KV Mechelen Actif 117 / 102 40% 1 10.12.2026 -
Eddie Nketiah Crystal Palace Actif 143 / 137 40% 2 09.12.2026 -
Oswin Appollis Orlando Pirates Actif 111 / 101 40% 1 09.12.2026 -
Tyler Goodrham Oxford United Actif 133 / 124 40% 1 06.12.2026 -
Mitchel Bakker Modena Actif 129 / 141 40% 4 04.12.2026 -
Daniel Kyerewaa Reading Actif 128 / 122 40% 1 04.12.2026 -
Elliot Anderson Manchester City Actif 142 / 157 40% 1 02.12.2026 -
Kyriani Sabbe Club Brugge Actif 122 / 111 40% 2 30.11.2026 -
Yassine Khalifi Charleroi Actif 108 / 116 40% 1 27.11.2026 -
Fiete Arp OB Actif 140 / 133 40% 1 25.11.2026 -
Thomas Claes Zulte Waregem Actif 105 / 118 40% 1 25.11.2026 -
Jorg Schreuders Groningen Actif 120 / 137 40% 1 24.11.2026 -
Malick Mbaye Zulte Waregem Actif 117 / 102 40% 3 15.11.2026 -
Thibaud Verlinden OH Leuven Actif 124 / 127 40% 1 14.11.2026 -
Abdelkahar Kadri KAA Gent Actif 112 / 123 40% 1 14.11.2026 -
Dylan Ourega Westerlo Actif 116 / 129 40% 1 09.11.2026 -
Jadon Sancho Manchester United Actif 162 / 135 40% 2 06.11.2026 -
Alex Luna Instituto Actif 136 / 132 40% 1 05.11.2026 -
Tommy St. Jago KV Mechelen Actif 123 / 113 40% 1 04.11.2026 -
Alejandro Piedrahita Deportivo Pereira Actif 114 / 137 40% 1 04.11.2026 -
Jens Petter Hauge Bodo/Glimt Actif 138 / 126 40% 1 03.11.2026 -
Adnane Abid Standard Liege Actif 121 / 117 40% 1 02.11.2026 -
Scott Twine Bristol City Actif 137 / 138 40% 1 02.11.2026 -
Nikolas Sattlberger Racing Genk Actif 107 / 136 40% 1 31.10.2026 -
Timothy Tielemans Mouscron Actif 111 / 113 40% 1 29.10.2026 -
Jan Virgili Club Brugge Actif 123 / 130 40% 2 27.10.2026 -
Sylvester Jasper Standard Liege Actif 103 / 126 40% 1 26.10.2026 -
Mohamed-Ali Cho Hull City Actif 118 / 143 40% 1 21.10.2026 -
Jason Knight Bristol City Actif 126 / 136 40% 1 21.10.2026 -
Dante Rigo Standard Liege Actif 100 / 125 40% 1 20.10.2026 -
Łukasz Łakomy OH Leuven Actif 116 / 108 40% 1 18.10.2026 -
Emi Rodriguez Leon Actif 111 / 103 40% 1 18.10.2026 -
Martín Ojeda Orlando City Actif 158 / 111 40% 1 14.10.2026 -
Pedro Vite Pumas UNAM Actif 143 / 124 40% 1 14.10.2026 -
Talles Magno New York City Actif 115 / 125 40% 1 13.10.2026 -
Marcus Edwards Burnley Actif 150 / 140 40% 1 12.10.2026 -
Yaimar Medina Racing Genk Actif 112 / 109 40% 1 11.10.2026 -
Omar Campos Cruz Azul Actif 147 / 131 40% 1 10.10.2026 -
Antoine Colassin Charleroi Actif 110 / 110 40% 1 09.10.2026 -
Sieben Dewaele Waasland-Beveren Actif 100 / 104 40% 1 08.10.2026 -
Hugo Vetlesen Club Brugge Actif 125 / 134 40% 1 07.10.2026 -
Jearl Margaritha Waasland-Beveren Actif 91 / 101 40% 1 07.10.2026 -
Ibrahim Karamoko Standard Liege Actif 124 / 112 40% 1 06.10.2026 -
Matisse Samoise KAA Gent Actif 109 / 106 40% 1 05.10.2026 -
Djordje Mihailović Toronto FC Actif 146 / 149 40% 1 05.10.2026 -